• Join FlightAware (Why Join?)
  • Login
  • US Flag 
09:27AM EST


 

Airport Tracker/Info


-or-


 

Live Flight TrackerFlight Track Log ✈ AAY800 ✈ 22-Apr-2014 ✈ KPIE - KTOL

Flight Track Log - Related Links

Times and Time Zones

All times are in EDT time to prevent confusion due to time zone crossing. See the AAY800 flight status page for this flight to view local times or setup timezone preferences in your user account.

Time Position Orientation Groundspeed Altitude Reporting Facility
EDT Latitude Longitude Course Direction KTS MPH feet Rate Location/Type
07:51AM 27.9167 -82.6833 360° North 203 234 600  Level Tampa TRACON
07:52AM 27.9833 -82.6833 360° North 187 215 3,300 2,000 Climbing Tampa TRACON
07:53AM 28.0892 -82.6572 12° North 239 275 6,300 1,964 Climbing Jacksonville Center
07:54AM 28.1622 -82.6453 North 260 299 8,700 2,150 Climbing Jacksonville Center
07:55AM 28.2456 -82.6333 North 277 319 10,600 1,500 Climbing Jacksonville Center
07:56AM 28.3417 -82.6142 10° North 313 360 11,700 1,550 Climbing Jacksonville Center
07:57AM 28.4500 -82.5950 North 358 412 13,700 2,231 Climbing Jacksonville Center
07:58AM 28.5586 -82.6067 355° North 389 448 16,200 2,150 Climbing Jacksonville Center
07:59AM 28.6672 -82.6347 347° North 389 448 18,000 1,815 Climbing Jacksonville Center
08:00AM 28.7819 -82.6367 359° North 395 455 19,800 1,550 Climbing Jacksonville Center
08:01AM 28.9031 -82.6483 355° North 406 467 21,100 1,537 Climbing Jacksonville Center
08:02AM 29.0261 -82.6503 359° North 426 490 22,900 1,587 Climbing Jacksonville Center
08:03AM 29.1514 -82.6572 357° North 436 502 24,300 1,664 Climbing Jacksonville Center
08:04AM 29.2789 -82.6569 360° North 444 511 26,200 1,462 Climbing Jacksonville Center
08:05AM 29.4019 -82.6614 358° North 444 511 27,200 1,250 Climbing Jacksonville Center
08:06AM 29.5272 -82.6633 359° North 444 511 28,700 1,300 Climbing Jacksonville Center
08:07AM 29.6525 -82.6656 359° North 443 510 29,800 1,100 Climbing Jacksonville Center
08:08AM 29.7653 -82.6653 360° North 443 510 30,900 950 Climbing Jacksonville Center
08:09AM 29.8864 -82.6722 357° North 443 510 31,700 850 Climbing Jacksonville Center
08:10AM 30.0136 -82.6719 360° North 443 510 32,600 650 Climbing Jacksonville Center
08:11AM 30.1347 -82.6789 357° North 438 504 33,000 200 Climbing Jacksonville Center
08:12AM 30.2581 -82.6786 360° North 438 504 33,000  Level Jacksonville Center
08:13AM 30.3811 -82.6831 358° North 443 510 33,000  Level Jacksonville Center
08:14AM 30.5064 -82.6853 359° North 443 510 33,000  Level Jacksonville Center
08:15AM 30.6233 -82.7114 349° North 438 504 33,000  Level Jacksonville Center
08:16AM 30.7425 -82.7356 350° North 438 504 33,000  Level Jacksonville Center
08:17AM 30.8572 -82.7619 349° North 425 489 33,000  Level Jacksonville Center
08:18AM 30.9764 -82.7883 349° North 425 489 33,000  Level Jacksonville Center
08:19AM 31.0953 -82.8100 351° North 425 489 33,000  Level Jacksonville Center
08:20AM 31.2122 -82.8367 349° North 430 495 33,000  Level Jacksonville Center
08:21AM 31.3292 -82.8633 349° North 430 495 33,000  Level Jacksonville Center
08:22AM 31.4461 -82.8878 350° North 430 495 33,000  Level Jacksonville Center
08:23AM 31.5672 -82.9097 351° North 430 495 33,000  Level Jacksonville Center
08:26AM 31.8422 -82.9753 349° North 419 482 33,000  Level Atlanta Center
08:27AM 31.9614 -82.9983 351° North 419 482 33,000  Level Atlanta Center
08:28AM 32.0786 -83.0264 349° North 425 489 33,000  Level Atlanta Center
08:29AM 32.1933 -83.0472 351° North 425 489 33,000  Level Atlanta Center
08:30AM 32.3106 -83.0781 347° North 425 489 33,000 -150 Level Atlanta Center
08:31AM 32.4275 -83.0989 351° North 425 489 32,700 -500 Descending Atlanta Center
08:32AM 32.5406 -83.1297 347° North 425 489 32,000 -350 Descending Atlanta Center
08:33AM 32.6575 -83.1506 351° North 425 489 32,000  Level Atlanta Center
08:34AM 32.7706 -83.1817 347° North 425 489 32,000  Level Atlanta Center
08:35AM 32.8833 -83.2003 352° North 416 479 32,000  Level Atlanta Center
08:36AM 32.9983 -83.2314 347° North 416 479 32,000  Level Atlanta Center
08:37AM 33.1258 -83.2575 350° North 416 479 32,000  Level Atlanta Center
08:38AM 33.2450 -83.2861 349° North 421 484 32,000  Level Atlanta Center
08:39AM 33.3578 -83.3075 351° North 426 490 32,000  Level Atlanta Center
08:40AM 33.4728 -83.3364 348° North 426 490 32,000  Level Atlanta Center
08:41AM 33.5858 -83.3581 351° North 421 484 32,000  Level Atlanta Center
08:42AM 33.7006 -83.3872 348° North 421 484 32,000  Level Atlanta Center
08:43AM 33.8156 -83.4086 351° North 416 479 32,000  Level Atlanta Center
08:44AM 33.9306 -83.4406 347° North 411 473 32,000  Level Atlanta Center
08:45AM 34.0497 -83.4597 352° North 416 479 32,000  Level Atlanta Center
08:46AM 34.1625 -83.4914 347° North 416 479 32,000  Level Atlanta Center
08:47AM 34.2794 -83.5133 351° North 416 479 32,000  Level Atlanta Center
08:48AM 34.3839 -83.5406 348° North 416 479 32,000  Level Atlanta Center
08:49AM 34.5008 -83.5625 351° North 416 479 32,000  Level Atlanta Center
08:50AM 34.6178 -83.5972 346° North 422 486 32,000  Level Atlanta Center
08:51AM 34.7347 -83.6192 351° North 427 491 32,000  Level Atlanta Center
08:52AM 34.8517 -83.6439 350° North 427 491 32,000  Level Atlanta Center
08:53AM 34.9667 -83.6764 347° North 427 491 32,000  Level Atlanta Center
08:54AM 35.0856 -83.7036 349° North 427 491 32,000  Level Atlanta Center
08:55AM 35.2047 -83.7311 349° North 433 498 32,000  Level Atlanta Center
08:56AM 35.3194 -83.7589 349° North 428 493 32,000  Level Atlanta Center
08:57AM 35.4364 -83.7864 349° North 428 493 32,000  Level Atlanta Center
08:58AM 35.5533 -83.8117 350° North 428 493 32,000  Level Atlanta Center
08:59AM 35.6722 -83.8419 348° North 428 493 32,000  Level Atlanta Center
09:00AM 35.7911 -83.8672 350° North 428 493 32,000  Level Atlanta Center
09:01AM 35.9081 -83.9003 347° North 428 493 32,000  Level Atlanta Center
09:02AM 36.0311 -83.9131 355° North 434 499 32,000  Level Atlanta Center
09:03AM 36.1250 -83.9297 352° North 438 504 32,000  Level Indianapolis Center
09:04AM 36.2453 -83.9428 355° North 438 504 32,000  Level Indianapolis Center
09:05AM 36.3647 -83.9644 352° North 438 504 32,000  Level Indianapolis Center
09:06AM 36.5114 -83.9817 355° North 439 505 32,000  Level Indianapolis Center
09:07AM 36.6311 -84.0042 351° North 440 506 32,000  Level Indianapolis Center
09:08AM 36.7522 -84.0192 354° North 435 501 32,000  Level Indianapolis Center
09:09AM 36.8717 -84.0397 352° North 434 499 32,000  Level Indianapolis Center
09:10AM 36.9928 -84.0561 354° North 433 498 32,000  Level Indianapolis Center
09:11AM 37.1142 -84.0764 352° North 434 499 32,000  Level Indianapolis Center
09:12AM 37.2556 -84.0944 354° North 435 501 32,000  Level Indianapolis Center
09:13AM 37.3744 -84.1167 352° North 432 497 32,000  Level Indianapolis Center
09:14AM 37.4956 -84.1300 355° North 432 497 32,000  Level Indianapolis Center
09:15AM 37.6147 -84.1533 351° North 432 497 32,000  Level Indianapolis Center
09:16AM 37.7369 -84.1667 355° North 434 499 32,000  Level Indianapolis Center
09:17AM 37.8567 -84.1897 351° North 435 501 32,000  Level Indianapolis Center
09:18AM 37.9972 -84.2067 355° North 434 499 32,000  Level Indianapolis Center
09:19AM 38.1158 -84.2283 352° North 433 498 32,000  Level Indianapolis Center
09:20AM 38.2389 -84.2425 355° North 435 501 32,000  Level Indianapolis Center
09:21AM 38.3586 -84.2642 352° North 435 501 32,000  Level Indianapolis Center
09:22AM 38.4769 -84.2803 354° North 432 497 32,000  Level Indianapolis Center
09:23AM 38.5972 -84.3014 352° North 432 497 32,000  Level Indianapolis Center
09:24AM 38.7211 -84.2969 North 443 510 32,000  Level Indianapolis Center
09:25AM 38.8431 -84.2756 North 448 516 32,000  Level Indianapolis Center
09:26AM 38.9897 -84.2547 North 441 507 32,000  Level Indianapolis Center
09:27AM 39.1119 -84.2339 North 442 509 32,000 -192 Level Indianapolis Center
09:28AM 39.2361 -84.2203 North 444 511 31,600 -484 Descending Indianapolis Center
09:29AM 39.3606 -84.1975 North 452 520 31,000 -871 Descending Indianapolis Center
09:30AM 39.4972 -84.1750 North 441 507 29,800 -1,258 Descending Indianapolis Center
09:31AM 39.6217 -84.1547 North 444 511 28,400 -1,306 Descending Indianapolis Center
09:33AM 39.7453 -84.1350 North 447 514 27,100 -1,258 Descending Indianapolis Center
09:34AM 39.8758 -84.1136 North 438 504 25,800 -1,016 Descending Indianapolis Center
09:35AM 39.9964 -84.0936 North 437 503 25,000 -387 Descending Indianapolis Center
09:36AM 40.1172 -84.0714 North 436 502 25,000 -48 Level Indianapolis Center
09:37AM 40.2375 -84.0533 North 436 502 24,900 -484 Descending Indianapolis Center
09:38AM 40.3600 -84.0158 13° North 443 510 24,000 -726 Descending Indianapolis Center
09:39AM 40.4822 -83.9750 14° North 449 517 23,400 -1,065 Descending Indianapolis Center
09:40AM 40.6006 -83.9394 13° North 442 509 21,800 -1,742 Descending Indianapolis Center
09:41AM 40.7300 -83.8906 16° North 409 471 19,800 -1,887 Descending Indianapolis Center
09:42AM 40.8314 -83.8575 14° North 386 444 17,900 -2,226 Descending Indianapolis Center
09:43AM 40.9281 -83.8228 15° North 366 421 15,200 -2,274 Descending Indianapolis Center
09:44AM 41.0278 -83.7956 12° North 366 421 13,200 -1,790 Descending Indianapolis Center
09:45AM 41.1183 -83.7567 18° North 352 405 11,500 -1,536 Descending Indianapolis Center
09:46AM 41.2019 -83.7294 14° North 291 335 10,000 -1,824 Descending Cleveland Center
09:47AM 41.2714 -83.7331 358° North 262 302 7,700 -2,226 Descending Cleveland Center
09:48AM 41.3344 -83.7678 338° Northwest 248 285 5,400 -2,323 Descending Cleveland Center
09:49AM 41.3947 -83.8003 338° Northwest 241 277 2,900 -2,419 Descending Cleveland Center
09:51AM 41.4991 -83.7044 315° West  Level FlightAware Approximate
09:58AM 41.5833 -83.8000 323° Northwest  Level FlightAware Approximate
09:59AM 41.5868 -83.8078 323° Northwest  Level Estimated
10:00AM 41.5833 -83.8000 323° Northwest  Level FlightAware Approximate
10:01AM 41.5868 -83.8078 323° Northwest  Level Estimated
10:02AM 41.5833 -83.8000 323° Northwest  Level FlightAware Approximate